Time;durP1;ratioP1;P1;durP2;ratioP2;P2;SDS_P1;SDS_P2;PMS_P1;PMS_P2;Temp;Humidity;BMP_temperature;BMP_pressure;BME280_temperature;BME280_humidity;BME280_pressure;Samples;Min_cycle;Max_cycle;Signal;HPM_P1;HPM_P2
2022/10/03 00:01:49;;;;;;;13.32;1.98;;;10.20;99.90;;;;;;6271158;22;20426;-85
2022/10/03 00:04:43;;;;;;;10.57;1.65;;;10.10;99.90;;;;;;6272399;22;20371;-85
2022/10/03 00:07:15;;;;;;;14.20;2.20;;;10.10;99.90;;;;;;6245224;22;20340;-85
2022/10/03 00:09:57;;;;;;;13.35;2.72;;;10.10;99.90;;;;;;6271085;22;20086;-85
2022/10/03 00:12:53;;;;;;;10.45;1.67;;;10.10;99.90;;;;;;6272011;22;20094;-85
2022/10/03 00:15:53;;;;;;;13.95;1.98;;;10.10;99.90;;;;;;6270720;22;20310;-85
2022/10/03 00:18:42;;;;;;;12.38;1.90;;;10.10;99.90;;;;;;6273060;22;20035;-84
2022/10/03 00:21:36;;;;;;;11.63;1.58;;;10.30;99.90;;;;;;6270980;22;20015;-85
2022/10/03 00:24:21;;;;;;;9.95;1.70;;;10.40;99.90;;;;;;6272556;22;20015;-85
2022/10/03 00:27:12;;;;;;;13.88;2.95;;;10.30;99.90;;;;;;6269927;22;20532;-84
2022/10/03 00:29:38;;;;;;;6.68;1.63;;;10.30;99.90;;;;;;6244877;22;20053;-84
2022/10/03 00:32:39;;;;;;;12.05;1.60;;;10.30;99.90;;;;;;6270653;22;20012;-85
2022/10/03 00:35:21;;;;;;;13.05;1.90;;;10.30;99.90;;;;;;6244998;22;20012;-85
2022/10/03 00:38:23;;;;;;;17.00;2.17;;;10.50;99.90;;;;;;6270184;22;20008;-85
2022/10/03 00:41:08;;;;;;;10.38;1.55;;;10.30;99.90;;;;;;6236385;22;20011;-85
2022/10/03 00:43:41;;;;;;;12.85;1.77;;;10.40;99.90;;;;;;6244594;22;20011;-85
2022/10/03 00:46:21;;;;;;;15.23;2.00;;;10.40;99.90;;;;;;6270593;22;20464;-85
2022/10/03 00:49:19;;;;;;;11.95;2.25;;;10.50;99.90;;;;;;6270605;22;20019;-85
2022/10/03 00:52:01;;;;;;;16.00;1.90;;;10.50;99.90;;;;;;6270435;22;20011;-85
2022/10/03 00:55:11;;;;;;;15.70;2.13;;;10.60;99.90;;;;;;6270325;22;20019;-84
2022/10/03 00:57:49;;;;;;;12.88;1.70;;;10.60;99.90;;;;;;6244851;22;20095;-85
2022/10/03 01:00:15;;;;;;;12.98;1.92;;;10.70;99.90;;;;;;6272408;22;20012;-85
2022/10/03 01:03:06;;;;;;;10.07;1.58;;;10.70;99.90;;;;;;6272257;22;20023;-85
2022/10/03 01:06:14;;;;;;;9.23;1.63;;;10.80;99.90;;;;;;6270287;22;20090;-85
2022/10/03 01:09:13;;;;;;;10.07;1.23;;;10.80;99.90;;;;;;6270092;22;20019;-85
2022/10/03 01:12:07;;;;;;;14.68;2.00;;;10.80;99.90;;;;;;6243914;22;20041;-85
2022/10/03 01:14:43;;;;;;;9.65;1.77;;;10.80;99.90;;;;;;6245111;22;20016;-84
2022/10/03 01:17:25;;;;;;;10.98;1.40;;;10.90;99.90;;;;;;6272308;22;20003;-85
2022/10/03 01:20:02;;;;;;;13.82;1.52;;;10.90;99.90;;;;;;6244423;22;20027;-85
2022/10/03 01:23:06;;;;;;;12.40;1.58;;;10.90;99.90;;;;;;6272037;22;20024;-85
2022/10/03 01:25:50;;;;;;;12.40;1.65;;;11.00;99.90;;;;;;6269847;22;20019;-85
2022/10/03 01:31:58;;;;;;;9.88;1.58;;;11.00;99.90;;;;;;6269928;22;20293;-85
2022/10/03 01:34:40;;;;;;;11.05;1.40;;;11.00;99.90;;;;;;6270978;22;20043;-85
2022/10/03 01:37:21;;;;;;;16.23;1.80;;;11.10;99.90;;;;;;6269953;22;20019;-84
2022/10/03 01:40:05;;;;;;;18.27;1.83;;;11.10;99.90;;;;;;6243998;22;20050;-85
2022/10/03 01:42:52;;;;;;;12.25;1.27;;;11.10;99.90;;;;;;6271785;22;20015;-84
2022/10/03 01:45:36;;;;;;;14.40;1.45;;;11.10;99.90;;;;;;6270017;22;20016;-85
2022/10/03 01:48:02;;;;;;;10.25;1.98;;;11.10;99.90;;;;;;6244111;22;20091;-84
2022/10/03 01:50:41;;;;;;;10.05;1.40;;;11.00;99.90;;;;;;6272048;22;20047;-85
2022/10/03 01:53:18;;;;;;;14.73;1.70;;;11.10;99.90;;;;;;6270244;22;20012;-85
2022/10/03 01:55:54;;;;;;;15.52;1.67;;;11.00;99.90;;;;;;6243611;22;20069;-84
2022/10/03 01:58:26;;;;;;;10.07;1.77;;;11.10;99.90;;;;;;6244277;22;20026;-84
2022/10/03 02:01:12;;;;;;;15.43;1.70;;;11.00;99.90;;;;;;6270530;22;20008;-84
2022/10/03 02:04:08;;;;;;;8.10;1.38;;;11.00;99.90;;;;;;6244103;22;20012;-84
2022/10/03 02:06:57;;;;;;;16.60;1.88;;;11.00;99.90;;;;;;6269316;22;20091;-84
2022/10/03 02:09:26;;;;;;;11.85;1.40;;;10.90;99.90;;;;;;6268867;22;20090;-85
2022/10/03 02:12:03;;;;;;;14.48;1.48;;;11.20;99.90;;;;;;6244474;22;20074;-84
2022/10/03 02:14:47;;;;;;;11.93;1.85;;;10.80;99.90;;;;;;6269955;22;20407;-84
2022/10/03 02:17:45;;;;;;;17.65;2.05;;;10.80;99.90;;;;;;6269923;22;20019;-85
2022/10/03 02:20:22;;;;;;;9.80;1.20;;;10.70;99.90;;;;;;6230998;22;20015;-85
2022/10/03 02:22:53;;;;;;;15.85;2.10;;;10.70;99.90;;;;;;6269345;22;20356;-85
2022/10/03 02:25:34;;;;;;;14.52;1.65;;;10.60;99.90;;;;;;6270017;22;20425;-85
2022/10/03 02:28:29;;;;;;;6.97;1.20;;;10.60;99.90;;;;;;6244922;22;20319;-85
2022/10/03 02:31:32;;;;;;;11.65;1.67;;;10.60;99.90;;;;;;6226099;22;20016;-85
2022/10/03 02:34:18;;;;;;;13.63;1.70;;;10.60;99.90;;;;;;6268466;22;20020;-85
2022/10/03 02:37:10;;;;;;;11.25;1.70;;;10.60;99.90;;;;;;6271602;22;20019;-84
2022/10/03 02:40:21;;;;;;;12.70;1.55;;;10.60;99.90;;;;;;6269856;22;20012;-85
2022/10/03 02:43:04;;;;;;;13.07;1.80;;;10.60;99.90;;;;;;6239355;22;20023;-85
2022/10/03 02:45:57;;;;;;;11.48;1.33;;;10.60;99.90;;;;;;6272518;22;20424;-84
2022/10/03 02:48:43;;;;;;;11.55;1.40;;;10.70;99.90;;;;;;6273467;22;20142;-85
2022/10/03 02:51:24;;;;;;;9.63;1.40;;;10.70;99.90;;;;;;6271155;22;20464;-84
2022/10/03 02:54:08;;;;;;;11.50;1.67;;;10.70;99.90;;;;;;6272991;22;20023;-85
2022/10/03 02:57:16;;;;;;;17.65;2.45;;;10.80;99.90;;;;;;6273702;22;20079;-85
2022/10/03 03:00:17;;;;;;;15.55;1.80;;;10.80;99.90;;;;;;6271489;22;20023;-85
2022/10/03 03:03:12;;;;;;;12.75;1.52;;;10.80;99.90;;;;;;6256555;22;20019;-85
2022/10/03 03:06:03;;;;;;;14.73;1.60;;;10.80;99.90;;;;;;6271600;22;20047;-84
2022/10/03 03:08:51;;;;;;;11.43;1.90;;;10.80;99.90;;;;;;6271005;22;20033;-84
2022/10/03 03:11:32;;;;;;;8.13;1.13;;;10.90;99.90;;;;;;6246077;22;20341;-85
2022/10/03 03:13:58;;;;;;;10.05;1.38;;;10.90;99.90;;;;;;6271648;22;20428;-85
2022/10/03 03:16:35;;;;;;;6.75;1.30;;;10.90;99.90;;;;;;6271482;22;20066;-85
2022/10/03 03:19:09;;;;;;;7.32;1.35;;;10.90;99.90;;;;;;6273273;22;20019;-85
2022/10/03 03:22:01;;;;;;;;;;;10.90;99.90;;;;;;6271293;22;20016;-85
2022/10/03 03:24:41;;;;;;;12.55;1.15;;;10.90;99.90;;;;;;6226041;22;20201;-85
2022/10/03 03:27:10;;;;;;;10.95;2.22;;;10.90;99.90;;;;;;6272834;22;20019;-85
2022/10/03 03:29:41;;;;;;;14.32;1.35;;;11.00;99.90;;;;;;6273344;22;20008;-85
2022/10/03 03:33:01;;;;;;;10.63;1.27;;;10.90;99.90;;;;;;6271431;22;20066;-85
2022/10/03 03:35:38;;;;;;;15.13;1.48;;;11.00;99.90;;;;;;6178060;23;20025;-85
2022/10/03 03:38:28;;;;;;;9.10;1.10;;;11.00;99.90;;;;;;6153967;23;20443;-85
2022/10/03 03:41:12;;;;;;;8.15;1.80;;;11.10;99.90;;;;;;6154080;23;20378;-85
2022/10/03 03:43:54;;;;;;;7.95;1.20;;;11.00;99.90;;;;;;6153855;23;20021;-85
2022/10/03 03:46:52;;;;;;;9.85;1.40;;;11.00;99.90;;;;;;6153690;23;20448;-85
2022/10/03 03:49:33;;;;;;;10.13;1.20;;;11.00;99.90;;;;;;6153601;23;20084;-85
2022/10/03 03:52:17;;;;;;;14.63;1.88;;;11.00;99.90;;;;;;6178075;23;20021;-85
2022/10/03 03:54:58;;;;;;;7.03;0.90;;;11.00;99.90;;;;;;6178884;23;20024;-85
2022/10/03 03:57:42;;;;;;;9.80;1.42;;;11.00;99.90;;;;;;6153519;23;20045;-85
2022/10/03 04:00:20;;;;;;;8.43;1.23;;;11.10;99.90;;;;;;6154036;23;20024;-85
2022/10/03 04:03:02;;;;;;;11.77;1.45;;;11.10;99.90;;;;;;6128178;23;20023;-85
2022/10/03 04:05:39;;;;;;;9.75;1.40;;;11.10;99.90;;;;;;6177861;23;20021;-85
2022/10/03 04:08:42;;;;;;;9.27;2.05;;;11.10;99.90;;;;;;6178453;23;20342;-85
2022/10/03 04:11:31;;;;;;;9.10;1.52;;;11.10;99.90;;;;;;6244879;22;20016;-85
2022/10/03 04:14:28;;;;;;;8.48;1.08;;;11.00;99.90;;;;;;6270980;22;20429;-85
2022/10/03 04:20:52;;;;;;;14.35;1.42;;;11.00;99.90;;;;;;6153055;23;20113;-85
2022/10/03 04:23:37;;;;;;;10.32;1.30;;;11.00;99.90;;;;;;6178464;23;20402;-85
2022/10/03 04:26:21;;;;;;;9.65;1.90;;;11.10;99.90;;;;;;6153381;23;20017;-85
2022/10/03 04:29:23;;;;;;;14.07;1.43;;;11.10;99.90;;;;;;6177839;23;20107;-85
2022/10/03 04:32:10;;;;;;;10.00;1.27;;;11.10;99.90;;;;;;6177447;23;20450;-85
2022/10/03 04:35:03;;;;;;;7.50;1.05;;;11.10;99.90;;;;;;6152131;23;20025;-85
2022/10/03 04:37:50;;;;;;;11.80;1.50;;;11.10;99.90;;;;;;6152909;23;20021;-85
2022/10/03 04:40:23;;;;;;;11.80;1.67;;;11.10;99.90;;;;;;6153001;23;20013;-85
2022/10/03 04:42:57;;;;;;;8.35;1.77;;;11.10;99.90;;;;;;6153249;23;20020;-85
2022/10/03 04:45:41;;;;;;;10.75;1.30;;;11.10;99.90;;;;;;6178325;23;20013;-85
2022/10/03 04:48:35;;;;;;;8.88;1.70;;;11.10;99.90;;;;;;6177464;23;20135;-84
2022/10/03 04:51:38;;;;;;;8.98;1.27;;;11.10;99.90;;;;;;6064440;23;20093;-85
2022/10/03 04:54:46;;;;;;;9.27;1.15;;;11.10;99.90;;;;;;6143306;23;20027;-85
2022/10/03 04:57:34;;;;;;;9.23;1.55;;;11.10;99.90;;;;;;6207780;23;20445;-85
2022/10/03 05:00:27;;;;;;;10.70;1.95;;;11.00;99.90;;;;;;6207588;23;20009;-85
2022/10/03 05:03:20;;;;;;;11.68;1.50;;;11.00;99.90;;;;;;6138360;23;20017;-85
2022/10/03 05:06:04;;;;;;;17.38;1.65;;;10.90;99.90;;;;;;6208422;23;20434;-85
2022/10/03 05:08:54;;;;;;;12.27;1.38;;;10.80;99.90;;;;;;6183009;23;20013;-85
2022/10/03 05:11:48;;;;;;;9.70;1.65;;;10.80;99.90;;;;;;6182905;23;20016;-84
2022/10/03 05:14:48;;;;;;;8.88;1.50;;;10.70;99.90;;;;;;6182330;23;20338;-84
2022/10/03 05:17:20;;;;;;;8.60;1.50;;;10.60;99.90;;;;;;6207232;23;20017;-85
2022/10/03 05:20:00;;;;;;;10.82;1.55;;;10.70;99.90;;;;;;6207989;23;20035;-85
2022/10/03 05:22:37;;;;;;;5.55;1.10;;;10.50;99.90;;;;;;6208014;23;20063;-85
2022/10/03 05:25:20;;;;;;;9.63;1.42;;;10.40;99.90;;;;;;6208439;23;20042;-83
2022/10/03 05:28:07;;;;;;;6.60;0.95;;;10.60;99.90;;;;;;6234861;22;20026;-86
2022/10/03 05:30:52;;;;;;;8.52;1.40;;;10.30;99.90;;;;;;6270276;22;20015;-83
2022/10/03 05:33:23;;;;;;;;;;;10.30;99.90;;;;;;6269010;22;20255;-85
2022/10/03 05:36:08;;;;;;;9.20;1.23;;;10.20;99.90;;;;;;6271439;22;19945;-84
2022/10/03 05:39:19;;;;;;;8.90;1.23;;;10.10;99.90;;;;;;6270092;22;20016;-84
2022/10/03 05:42:23;;;;;;;9.93;1.20;;;10.10;99.90;;;;;;6271560;22;20015;-84
2022/10/03 05:44:52;;;;;;;12.48;2.10;;;10.10;99.90;;;;;;6269763;22;20011;-84
2022/10/03 05:47:49;;;;;;;7.75;1.45;;;10.00;99.90;;;;;;6269305;22;20015;-84
2022/10/03 05:50:29;;;;;;;10.40;1.40;;;9.90;99.90;;;;;;6260779;22;20069;-84
2022/10/03 05:53:00;;;;;;;6.95;1.60;;;9.90;99.90;;;;;;6269789;22;20012;-84
2022/10/03 05:55:45;;;;;;;15.63;1.35;;;9.80;99.90;;;;;;6271221;22;20012;-84
2022/10/03 05:58:39;;;;;;;8.40;1.90;;;9.80;99.90;;;;;;6270739;22;20026;-84
2022/10/03 06:01:10;;;;;;;7.53;1.15;;;9.80;99.90;;;;;;6270222;22;20016;-86
2022/10/03 06:04:14;;;;;;;8.88;1.67;;;9.80;99.90;;;;;;6271091;22;20391;-88
2022/10/03 06:07:11;;;;;;;9.40;1.20;;;9.70;99.90;;;;;;6268859;22;20019;-83
2022/10/03 06:10:09;;;;;;;10.57;1.50;;;9.70;99.90;;;;;;6270305;22;20016;-85
2022/10/03 06:12:55;;;;;;;8.52;1.20;;;9.60;99.90;;;;;;6268937;22;20011;-85
2022/10/03 06:15:53;;;;;;;10.38;1.70;;;9.60;99.90;;;;;;6243520;22;20019;-85
2022/10/03 06:18:53;;;;;;;6.88;1.23;;;9.60;99.90;;;;;;6270854;22;20007;-85
2022/10/03 06:21:56;;;;;;;12.63;1.50;;;9.60;99.90;;;;;;6272722;22;20016;-85
2022/10/03 06:24:54;;;;;;;10.63;1.35;;;9.60;99.90;;;;;;6271027;22;20015;-84
2022/10/03 06:27:47;;;;;;;10.45;1.75;;;9.60;99.90;;;;;;6153902;23;20024;-82
2022/10/03 06:30:51;;;;;;;11.00;1.60;;;9.50;99.90;;;;;;6178274;23;20423;-82
2022/10/03 06:33:53;;;;;;;7.25;1.23;;;9.50;99.90;;;;;;6153398;23;20031;-83
2022/10/03 06:36:48;;;;;;;6.60;1.10;;;9.50;99.90;;;;;;6153712;23;20398;-83
2022/10/03 06:39:37;;;;;;;7.68;1.65;;;9.50;99.90;;;;;;6091051;23;20022;-82
2022/10/03 06:42:33;;;;;;;11.77;1.98;;;9.50;99.90;;;;;;6089362;23;20029;-82
2022/10/03 06:45:16;;;;;;;11.20;1.33;;;9.50;99.90;;;;;;6087928;23;20456;-82
2022/10/03 06:48:15;;;;;;;10.63;1.42;;;9.50;99.90;;;;;;6088411;23;20050;-82
2022/10/03 06:50:58;;;;;;;9.57;1.38;;;9.60;99.90;;;;;;6087597;23;20026;-82
2022/10/03 06:53:41;;;;;;;9.45;1.40;;;9.60;99.90;;;;;;6066745;23;20022;-82
2022/10/03 06:56:44;;;;;;;7.60;1.23;;;9.60;99.90;;;;;;6065898;23;20026;-81
2022/10/03 06:59:29;;;;;;;12.30;1.27;;;9.60;99.90;;;;;;6066395;23;20072;-89
2022/10/03 07:02:02;;;;;;;14.77;1.75;;;9.60;99.90;;;;;;6090355;23;20040;-87
2022/10/03 07:04:44;;;;;;;7.85;1.70;;;9.60;99.90;;;;;;6126603;23;20055;-85
2022/10/03 07:07:46;;;;;;;8.55;1.40;;;9.60;99.90;;;;;;6181959;23;20021;-85
2022/10/03 07:10:23;;;;;;;14.30;1.60;;;9.70;99.90;;;;;;6182308;23;20024;-85
2022/10/03 07:13:08;;;;;;;16.92;1.85;;;9.70;99.90;;;;;;6183292;23;20349;-86
2022/10/03 07:15:56;;;;;;;8.63;2.22;;;9.70;99.90;;;;;;6201960;22;20022;-85
2022/10/03 07:19:00;;;;;;;13.38;1.70;;;9.80;99.90;;;;;;6271417;22;20050;-86
2022/10/03 07:21:32;;;;;;;11.35;1.60;;;9.80;99.90;;;;;;6271516;22;20012;-86
2022/10/03 07:24:28;;;;;;;11.55;1.50;;;9.90;99.90;;;;;;6271956;22;20015;-86
2022/10/03 07:27:03;;;;;;;13.07;1.75;;;9.90;99.90;;;;;;6272965;22;20448;-85
2022/10/03 07:29:49;;;;;;;22.30;2.60;;;10.00;99.90;;;;;;6270263;22;20097;-85
2022/10/03 07:32:33;;;;;;;13.18;2.42;;;10.00;99.90;;;;;;6270891;22;20016;-87
2022/10/03 07:38:56;;;;;;;12.85;1.90;;;10.10;99.90;;;;;;6271269;22;20020;-86
2022/10/03 07:41:45;;;;;;;8.63;1.75;;;10.20;99.90;;;;;;6272506;22;20402;-86
2022/10/03 07:44:46;;;;;;;14.75;2.03;;;10.30;99.90;;;;;;6271231;22;20471;-86
2022/10/03 07:47:40;;;;;;;8.95;1.40;;;10.00;99.90;;;;;;6249329;22;20069;-86
2022/10/03 07:50:34;;;;;;;7.68;1.23;;;10.50;99.90;;;;;;6271956;22;20019;-86
2022/10/03 07:53:16;;;;;;;9.93;1.48;;;10.60;99.90;;;;;;6273813;22;20016;-86
2022/10/03 07:56:07;;;;;;;6.25;1.23;;;10.70;99.90;;;;;;6272834;22;20065;-86
2022/10/03 07:58:48;;;;;;;7.75;1.50;;;10.80;99.90;;;;;;6269637;22;20023;-87
2022/10/03 08:01:36;;;;;;;14.75;1.58;;;10.90;99.90;;;;;;6270741;22;20082;-86
2022/10/03 08:04:26;;;;;;;8.88;1.50;;;11.00;99.90;;;;;;6244488;22;20023;-87
2022/10/03 08:07:21;;;;;;;12.02;1.33;;;11.10;99.90;;;;;;6270703;22;20077;-86
2022/10/03 08:10:06;;;;;;;10.95;1.35;;;11.20;99.90;;;;;;6271170;22;20022;-86
2022/10/03 08:12:44;;;;;;;;;;;11.30;99.90;;;;;;6271042;22;20171;-86
2022/10/03 08:15:28;;;;;;;6.35;1.10;;;11.40;99.90;;;;;;6272116;22;19943;-86
2022/10/03 08:18:19;;;;;;;12.50;1.25;;;11.40;99.90;;;;;;6272311;22;20043;-86
2022/10/03 08:20:53;;;;;;;8.35;1.40;;;11.50;99.90;;;;;;6270140;22;20012;-86
2022/10/03 08:23:32;;;;;;;6.93;1.02;;;11.60;99.90;;;;;;6272894;22;20437;-86
2022/10/03 08:26:24;;;;;;;11.68;1.52;;;11.60;99.90;;;;;;6269738;22;20030;-86
2022/10/03 08:29:25;;;;;;;9.23;1.15;;;11.80;99.90;;;;;;6256451;22;20094;-86
2022/10/03 08:32:01;;;;;;;6.85;0.98;;;11.90;99.90;;;;;;6270209;22;20486;-86
2022/10/03 08:34:32;;;;;;;11.50;1.45;;;11.90;99.90;;;;;;6270075;22;20016;-86
2022/10/03 08:37:33;;;;;;;10.35;1.70;;;12.00;99.90;;;;;;6269803;22;20031;-86
2022/10/03 08:40:44;;;;;;;7.57;1.15;;;12.10;99.90;;;;;;6127418;23;20063;-86
2022/10/03 08:43:40;;;;;;;11.48;1.70;;;12.20;99.90;;;;;;6152766;23;20024;-86
2022/10/03 08:46:11;;;;;;;7.82;0.80;;;12.40;99.90;;;;;;6151639;23;20029;-86
2022/10/03 08:48:54;;;;;;;14.13;1.45;;;12.40;99.90;;;;;;6152255;23;20021;-85
2022/10/03 08:51:41;;;;;;;6.65;1.23;;;12.50;99.90;;;;;;6178512;23;20017;-86
2022/10/03 08:54:06;;;;;;;10.55;1.80;;;12.60;99.90;;;;;;6151807;23;20024;-86
2022/10/03 08:56:45;;;;;;;7.75;1.33;;;12.80;99.90;;;;;;6127095;23;20350;-86
2022/10/03 08:59:14;;;;;;;11.00;1.45;;;12.90;99.90;;;;;;6127474;23;20023;-86
2022/10/03 09:02:16;;;;;;;10.45;1.20;;;13.00;99.90;;;;;;6151599;23;20139;-86
2022/10/03 09:05:00;;;;;;;9.55;1.30;;;13.20;99.90;;;;;;6177817;23;20343;-86
2022/10/03 09:07:25;;;;;;;10.05;1.10;;;13.30;99.90;;;;;;6127996;23;20525;-86
2022/10/03 09:10:19;;;;;;;9.70;1.20;;;13.40;99.90;;;;;;6151336;23;20016;-86
2022/10/03 09:12:57;;;;;;;11.57;1.85;;;13.50;99.90;;;;;;6152437;23;20024;-86
2022/10/03 09:16:01;;;;;;;9.13;1.20;;;13.60;99.90;;;;;;6271270;22;20299;-86
2022/10/03 09:18:41;;;;;;;10.15;1.33;;;13.80;99.90;;;;;;6269682;22;20008;-86
2022/10/03 09:21:19;;;;;;;10.90;1.67;;;14.00;99.90;;;;;;6269244;22;20016;-86
2022/10/03 09:24:17;;;;;;;10.20;1.20;;;14.20;99.90;;;;;;6269138;22;20393;-86
2022/10/03 09:27:20;;;;;;;13.75;1.42;;;14.30;99.90;;;;;;6270287;22;20016;-86
2022/10/03 09:29:52;;;;;;;6.00;0.98;;;14.50;99.90;;;;;;6269652;22;20016;-86
2022/10/03 09:32:36;;;;;;;9.65;1.40;;;14.60;99.90;;;;;;6271682;22;20050;-86
2022/10/03 09:35:07;;;;;;;9.00;1.90;;;14.70;99.90;;;;;;6269313;22;20085;-86
2022/10/03 09:37:40;;;;;;;10.43;1.10;;;14.80;99.90;;;;;;6269398;22;20054;-86
2022/10/03 09:40:25;;;;;;;8.60;1.38;;;14.90;99.90;;;;;;6270844;22;20035;-87
2022/10/03 09:43:28;;;;;;;7.43;1.15;;;15.10;99.90;;;;;;6270495;22;20087;-86
2022/10/03 09:46:31;;;;;;;4.50;0.85;;;15.20;99.90;;;;;;6268141;22;20012;-87
2022/10/03 09:49:18;;;;;;;7.90;1.05;;;15.40;99.90;;;;;;6270900;22;20020;-87
2022/10/03 09:52:13;;;;;;;4.82;0.90;;;15.50;99.90;;;;;;6271661;22;20052;-86
2022/10/03 09:54:54;;;;;;;;;;;15.60;99.90;;;;;;6269738;22;20065;-86
2022/10/03 09:57:37;;;;;;;8.02;1.05;;;15.70;99.90;;;;;;6269813;22;19918;-87
2022/10/03 10:00:18;;;;;;;5.22;0.90;;;15.80;99.90;;;;;;6270590;22;20015;-87
2022/10/03 10:03:29;;;;;;;8.88;1.27;;;15.90;99.90;;;;;;6270043;22;20019;-87
2022/10/03 10:06:26;;;;;;;9.38;1.17;;;16.00;99.90;;;;;;6243734;22;20026;-87
2022/10/03 10:09:24;;;;;;;7.95;0.98;;;16.00;99.90;;;;;;6243194;22;20012;-86
2022/10/03 10:11:59;;;;;;;9.63;0.90;;;16.20;99.90;;;;;;6267922;22;20012;-86
2022/10/03 10:14:58;;;;;;;9.30;1.50;;;16.30;99.90;;;;;;6269932;22;20053;-87
2022/10/03 10:17:30;;;;;;;6.63;1.13;;;16.40;99.90;;;;;;6268725;22;20011;-87
2022/10/03 10:20:38;;;;;;;4.13;0.68;;;16.50;99.90;;;;;;6268981;22;20016;-87
2022/10/03 10:23:40;;;;;;;11.30;1.15;;;16.60;99.90;;;;;;6269039;22;20016;-87
2022/10/03 10:26:18;;;;;;;6.10;1.10;;;16.70;99.90;;;;;;6268232;22;20019;-87
2022/10/03 10:29:10;;;;;;;6.30;0.77;;;16.80;99.90;;;;;;6268761;22;20020;-87
2022/10/03 10:31:53;;;;;;;7.60;1.17;;;16.90;99.90;;;;;;6270905;22;20042;-87
2022/10/03 10:34:38;;;;;;;6.50;0.98;;;17.10;99.90;;;;;;6269864;22;20023;-88
2022/10/03 10:37:38;;;;;;;7.45;0.90;;;17.20;99.90;;;;;;6271254;22;20008;-88
2022/10/03 10:40:40;;;;;;;5.32;0.85;;;17.30;99.90;;;;;;6224096;22;20051;-89
2022/10/03 10:43:34;;;;;;;9.82;1.10;;;17.50;99.90;;;;;;6272238;22;20008;-88
2022/10/03 10:46:03;;;;;;;5.25;0.82;;;17.60;99.90;;;;;;6270426;22;20015;-87
2022/10/03 10:49:06;;;;;;;5.45;0.70;;;17.60;99.90;;;;;;6271975;22;20456;-88
2022/10/03 10:52:20;;;;;;;7.38;0.90;;;17.60;99.90;;;;;;6269800;22;20015;-88
2022/10/03 10:54:51;;;;;;;6.88;0.75;;;17.60;99.90;;;;;;6178062;23;20017;-86
2022/10/03 10:57:39;;;;;;;6.63;1.20;;;17.60;99.90;;;;;;6177733;23;20013;-86
2022/10/03 11:00:17;;;;;;;6.70;1.10;;;17.50;99.90;;;;;;6149434;23;20017;-86
2022/10/03 11:02:55;;;;;;;3.80;0.50;;;17.50;99.90;;;;;;6152088;23;20513;-87
2022/10/03 11:05:42;;;;;;;11.48;1.17;;;17.40;99.90;;;;;;6152134;23;20042;-87
2022/10/03 11:08:26;;;;;;;6.57;0.63;;;17.50;99.90;;;;;;6154333;23;20147;-86
2022/10/03 11:11:29;;;;;;;5.95;0.70;;;17.40;99.90;;;;;;6153812;23;20029;-87
2022/10/03 11:14:00;;;;;;;8.02;1.40;;;17.50;99.90;;;;;;6153974;23;20343;-90
2022/10/03 11:16:47;;;;;;;6.95;0.98;;;17.50;99.90;;;;;;6154071;23;20021;-84
2022/10/03 11:19:25;;;;;;;7.05;0.95;;;17.60;99.90;;;;;;6177834;23;20013;-84
2022/10/03 11:22:15;;;;;;;5.03;1.00;;;17.60;99.90;;;;;;6128868;23;20009;-84
2022/10/03 11:24:41;;;;;;;8.32;0.80;;;17.70;99.90;;;;;;6149112;22;20020;-83
2022/10/03 11:27:40;;;;;;;8.45;1.13;;;17.80;99.90;;;;;;6270854;22;20019;-87
2022/10/03 11:30:18;;;;;;;5.45;0.88;;;17.90;99.90;;;;;;6245620;22;20011;-82
2022/10/03 11:33:22;;;;;;;3.38;0.90;;;17.90;99.90;;;;;;6271050;22;20105;-81
2022/10/03 11:36:12;;;;;;;4.55;0.80;;;17.80;99.90;;;;;;6272649;22;20020;-85
2022/10/03 11:38:50;;;;;;;4.32;0.60;;;17.70;99.90;;;;;;6270693;22;20015;-85
2022/10/03 11:41:45;;;;;;;7.80;0.90;;;17.60;99.90;;;;;;6245520;22;20058;-85
2022/10/03 11:44:30;;;;;;;5.50;0.68;;;17.60;99.90;;;;;;6245833;22;20054;-85
2022/10/03 11:47:21;;;;;;;5.93;0.73;;;17.60;99.90;;;;;;6273017;22;20008;-85
2022/10/03 11:50:02;;;;;;;6.43;0.80;;;17.50;99.90;;;;;;6270182;22;20011;-85
2022/10/03 11:52:32;;;;;;;4.65;0.70;;;17.50;99.90;;;;;;6272970;22;20019;-85
2022/10/03 11:55:00;;;;;;;6.60;0.80;;;17.60;99.90;;;;;;6270940;22;20015;-85
2022/10/03 11:57:37;;;;;;;3.53;0.80;;;17.60;99.90;;;;;;6280359;22;20351;-86
2022/10/03 12:00:18;;;;;;;5.70;0.70;;;17.60;99.90;;;;;;6303187;22;20008;-87
2022/10/03 12:03:06;;;;;;;6.00;0.88;;;17.60;99.90;;;;;;6275121;22;20011;-85
2022/10/03 12:05:41;;;;;;;6.30;0.75;;;17.60;99.90;;;;;;6303299;22;20099;-85
2022/10/03 12:11:17;;;;;;;7.72;1.33;;;17.70;99.90;;;;;;6301149;22;20092;-85
2022/10/03 12:14:05;;;;;;;4.15;0.80;;;17.80;99.90;;;;;;6303257;22;20669;-85
2022/10/03 12:17:00;;;;;;;4.10;0.70;;;17.90;99.90;;;;;;6275541;22;20015;-85
2022/10/03 12:19:29;;;;;;;5.53;0.80;;;18.00;99.90;;;;;;6302500;22;20061;-85
2022/10/03 12:22:40;;;;;;;3.83;0.60;;;18.10;99.90;;;;;;6303097;22;20523;-85
2022/10/03 12:25:18;;;;;;;5.82;1.58;;;18.10;99.90;;;;;;6262313;22;20019;-85
2022/10/03 12:27:49;;;;;;;6.38;0.60;;;18.20;99.90;;;;;;6303782;22;20023;-85
2022/10/03 12:30:18;;;;;;;9.55;1.00;;;18.20;99.90;;;;;;6276228;22;20007;-85
2022/10/03 12:33:05;;;;;;;5.63;0.80;;;18.10;99.90;;;;;;6301539;22;20351;-85
2022/10/03 12:35:56;;;;;;;6.93;0.75;;;18.00;99.90;;;;;;6302326;22;20022;-85
2022/10/03 12:38:55;;;;;;;4.88;1.02;;;18.00;99.90;;;;;;6302339;22;20015;-85
2022/10/03 12:41:49;;;;;;;8.70;0.90;;;18.00;99.90;;;;;;6302022;22;20072;-83
2022/10/03 12:44:30;;;;;;;5.68;0.77;;;18.10;99.90;;;;;;6301539;22;20015;-84
2022/10/03 12:47:22;;;;;;;5.80;0.70;;;18.20;99.90;;;;;;6303076;22;20014;-83
2022/10/03 12:50:14;;;;;;;6.28;0.90;;;18.30;99.90;;;;;;6301830;22;20019;-84
2022/10/03 12:52:56;;;;;;;5.75;0.75;;;18.40;99.90;;;;;;6301838;22;20439;-83
2022/10/03 12:55:35;;;;;;;5.30;0.77;;;18.50;99.90;;;;;;6301309;22;20046;-90
2022/10/03 12:58:35;;;;;;;5.35;1.20;;;18.60;99.90;;;;;;6277423;22;20030;-84
2022/10/03 13:01:19;;;;;;;7.78;0.77;;;18.70;99.90;;;;;;6269165;22;20019;-87
2022/10/03 13:03:57;;;;;;;5.93;1.08;;;18.80;99.90;;;;;;6271286;22;20086;-86
2022/10/03 13:06:40;;;;;;;3.53;0.73;;;18.80;99.90;;;;;;6268889;22;20012;-85
2022/10/03 13:09:10;;;;;;;9.02;0.93;;;18.80;99.90;;;;;;6269971;22;20047;-89
2022/10/03 13:11:45;;;;;;;5.82;0.80;;;18.80;99.90;;;;;;6270314;22;20016;-86
2022/10/03 13:14:26;;;;;;;7.03;0.90;;;18.70;99.90;;;;;;6243996;22;20095;-85
2022/10/03 13:17:18;;;;;;;6.95;0.85;;;18.60;99.90;;;;;;6270697;22;20079;-86
2022/10/03 13:20:01;;;;;;;6.03;1.08;;;18.50;99.90;;;;;;6212368;22;20067;-85
2022/10/03 13:22:42;;;;;;;6.50;1.00;;;18.50;99.90;;;;;;6269159;22;20023;-85
2022/10/03 13:25:30;;;;;;;10.07;1.35;;;18.50;99.90;;;;;;6271400;22;20008;-88
2022/10/03 13:28:12;;;;;;;5.28;0.73;;;18.60;99.90;;;;;;6269477;22;20026;-87
2022/10/03 13:30:52;;;;;;;6.55;1.02;;;18.60;99.90;;;;;;6268539;22;20069;-87
2022/10/03 13:33:25;;;;;;;5.47;0.80;;;18.70;99.90;;;;;;6269655;22;20454;-85
2022/10/03 13:36:08;;;;;;;6.57;1.10;;;18.80;99.90;;;;;;6269574;22;20050;-84
2022/10/03 13:38:37;;;;;;;9.18;0.98;;;18.80;99.90;;;;;;6271227;22;20011;-84
2022/10/03 13:41:27;;;;;;;6.60;1.00;;;18.80;99.90;;;;;;6271147;22;20016;-84
2022/10/03 13:59:50;;;;;;;5.95;0.77;;;18.80;99.90;;;;;;6292770;22;20086;-86
2022/10/03 14:02:41;;;;;;;7.15;0.95;;;18.80;99.90;;;;;;6298779;22;20029;-86
2022/10/03 14:05:17;;;;;;;5.85;0.65;;;18.70;99.90;;;;;;6300724;22;20011;-90
2022/10/03 14:08:26;;;;;;;5.20;1.00;;;18.60;99.90;;;;;;6275836;22;20102;-84
2022/10/03 14:11:21;;;;;;;5.38;1.05;;;18.50;99.90;;;;;;6269970;22;20359;-88
2022/10/03 14:14:33;;;;;;;7.07;1.25;;;18.30;99.90;;;;;;6270537;22;20396;-88
2022/10/03 14:17:40;;;;;;;5.63;1.10;;;18.30;99.90;;;;;;6243365;22;20027;-87
2022/10/03 14:20:27;;;;;;;6.10;1.00;;;18.30;99.90;;;;;;6199465;22;20120;-88
2022/10/03 14:23:12;;;;;;;5.95;0.63;;;18.10;99.90;;;;;;6271148;22;20078;-86
2022/10/03 14:25:59;;;;;;;6.10;1.13;;;18.00;99.90;;;;;;6270846;22;20102;-84
2022/10/03 14:28:29;;;;;;;6.07;1.25;;;18.00;99.90;;;;;;6268797;22;20022;-84
2022/10/03 14:31:10;;;;;;;6.82;0.98;;;18.00;99.90;;;;;;6268621;22;20145;-84
2022/10/03 14:33:48;;;;;;;6.82;1.10;;;17.90;99.90;;;;;;6268858;22;20340;-85
2022/10/03 14:36:28;;;;;;;4.65;1.05;;;17.90;99.90;;;;;;6241979;22;20060;-83
2022/10/03 14:39:00;;;;;;;8.30;0.98;;;17.90;99.90;;;;;;6268229;22;20015;-84
2022/10/03 14:41:45;;;;;;;7.22;1.13;;;17.80;99.90;;;;;;6269093;22;20012;-83
2022/10/03 14:44:40;;;;;;;8.80;1.17;;;17.80;99.90;;;;;;6269616;22;20019;-83
2022/10/03 14:47:11;;;;;;;4.22;0.75;;;17.80;99.90;;;;;;6269973;22;20436;-83
2022/10/03 14:49:47;;;;;;;7.45;0.88;;;17.70;99.90;;;;;;6270198;22;20020;-84
2022/10/03 14:52:37;;;;;;;5.85;0.90;;;17.70;99.90;;;;;;6269528;22;20011;-85
2022/10/03 14:55:19;;;;;;;5.43;0.80;;;17.60;99.90;;;;;;6268519;22;20027;-84